DLH117P EDDH-EDDS
Flight info
| Callsign | DLH117P |
|---|---|
| Flight time | 0h 56m |
| Altitude | 23000 |
| Route | AMLUH2G/33 AMLUH M852 DENIX Z113 SAS/N0440F330 P605 ELNAT/N0393F230 P605 TOSTU T726 LBU |
| Aircraft | A320/M-SDE3FGHIRWY/LB1 |
Departure
| Time | 2026-04-23 15:37 |
|---|---|
| Airport | Hamburg Helmut Schmidt Airport (EDDH) |
Arrival
| Time | 2026-04-23 16:33 |
|---|---|
| Airport | Stuttgart Airport (EDDS) |
| Time | Latitude | Longitude | Altitude | Speed | Heading |
|---|---|---|---|---|---|
| 2026-04-23 15:07 | 53.63208 | 10.00365 | 51 ft | 0 kts | 87° |
| 2026-04-23 15:28 | 53.63208 | 10.00368 | 51 ft | 0 kts | 87° |
| 2026-04-23 15:29 | 53.63207 | 10.00355 | 51 ft | 2 kts | 87° |
| 2026-04-23 15:29 | 53.63206 | 10.00328 | 51 ft | 2 kts | 87° |
| 2026-04-23 15:29 | 53.63206 | 10.00301 | 51 ft | 2 kts | 87° |
| 2026-04-23 15:29 | 53.63206 | 10.00275 | 51 ft | 2 kts | 90° |
| 2026-04-23 15:30 | 53.63206 | 10.00249 | 51 ft | 2 kts | 88° |
| 2026-04-23 15:30 | 53.63205 | 10.00221 | 51 ft | 2 kts | 88° |
| 2026-04-23 15:30 | 53.63206 | 10.00195 | 51 ft | 2 kts | 116° |
| 2026-04-23 15:30 | 53.63216 | 10.00177 | 44 ft | 0 kts | 177° |
| 2026-04-23 15:34 | 53.63177 | 10.00184 | 51 ft | 9 kts | 174° |
| 2026-04-23 15:34 | 53.63095 | 10.00190 | 47 ft | 16 kts | 191° |
| 2026-04-23 15:34 | 53.62996 | 10.00104 | 51 ft | 16 kts | 211° |
| 2026-04-23 15:35 | 53.62923 | 10.00000 | 50 ft | 14 kts | 237° |
| 2026-04-23 15:35 | 53.62890 | 9.99899 | 50 ft | 0 kts | 245° |
| 2026-04-23 15:35 | 53.62878 | 9.99855 | 50 ft | 14 kts | 245° |
| 2026-04-23 15:35 | 53.62879 | 9.99741 | 49 ft | 12 kts | 313° |
| 2026-04-23 15:36 | 53.62911 | 9.99706 | 50 ft | 0 kts | 331° |
| 2026-04-23 15:36 | 53.62912 | 9.99705 | 50 ft | 2 kts | 331° |
| 2026-04-23 15:36 | 53.63086 | 9.99543 | 50 ft | 67 kts | 332° |
| 2026-04-23 15:36 | 53.63704 | 9.99021 | 50 ft | 131 kts | 333° |
| 2026-04-23 15:37 | 53.64618 | 9.98137 | 284 ft | 163 kts | 326° |
| 2026-04-23 15:37 | 53.65626 | 9.97247 | 1088 ft | 163 kts | 329° |
| 2026-04-23 15:37 | 53.66663 | 9.96382 | 1797 ft | 174 kts | 332° |
| 2026-04-23 15:37 | 53.67815 | 9.95417 | 2295 ft | 195 kts | 333° |
| 2026-04-23 15:38 | 53.69109 | 9.94669 | 3235 ft | 199 kts | 352° |
| 2026-04-23 15:38 | 53.70508 | 9.94650 | 4196 ft | 202 kts | 358° |
| 2026-04-23 15:38 | 53.71939 | 9.94759 | 4793 ft | 209 kts | 9° |
| 2026-04-23 15:38 | 53.73169 | 9.96069 | 4967 ft | 220 kts | 50° |
| 2026-04-23 15:39 | 53.73797 | 9.98471 | 5005 ft | 227 kts | 68° |
| 2026-04-23 15:39 | 53.74155 | 10.01084 | 5000 ft | 232 kts | 82° |
| 2026-04-23 15:39 | 53.73971 | 10.03827 | 5007 ft | 241 kts | 103° |
| 2026-04-23 15:39 | 53.73216 | 10.06630 | 5007 ft | 278 kts | 118° |
| 2026-04-23 15:40 | 53.72205 | 10.09529 | 5281 ft | 293 kts | 117° |
| 2026-04-23 15:40 | 53.71205 | 10.12487 | 5294 ft | 288 kts | 116° |
| 2026-04-23 15:40 | 53.70219 | 10.15440 | 5310 ft | 287 kts | 117° |
| 2026-04-23 15:40 | 53.69051 | 10.18185 | 5290 ft | 290 kts | 131° |
| 2026-04-23 15:41 | 53.67494 | 10.20365 | 5444 ft | 296 kts | 148° |
| 2026-04-23 15:41 | 53.65610 | 10.21807 | 6465 ft | 298 kts | 163° |
| 2026-04-23 15:41 | 53.63601 | 10.22762 | 7474 ft | 302 kts | 165° |
| 2026-04-23 15:41 | 53.61565 | 10.23710 | 8444 ft | 306 kts | 165° |
| 2026-04-23 15:42 | 53.59493 | 10.24622 | 9422 ft | 310 kts | 170° |
| 2026-04-23 15:42 | 53.57337 | 10.24599 | 10342 ft | 313 kts | 191° |
| 2026-04-23 15:42 | 53.55127 | 10.23876 | 10806 ft | 335 kts | 194° |
| 2026-04-23 15:42 | 53.52859 | 10.23035 | 11205 ft | 355 kts | 194° |
| 2026-04-23 15:43 | 53.50413 | 10.22107 | 11940 ft | 364 kts | 194° |
| 2026-04-23 15:43 | 53.47933 | 10.21160 | 12790 ft | 368 kts | 194° |
| 2026-04-23 15:43 | 53.45413 | 10.20194 | 13648 ft | 373 kts | 194° |
| 2026-04-23 15:43 | 53.42872 | 10.19216 | 14421 ft | 377 kts | 194° |
| 2026-04-23 15:44 | 53.40304 | 10.18218 | 15182 ft | 380 kts | 194° |
| 2026-04-23 15:44 | 53.37717 | 10.17200 | 15960 ft | 383 kts | 194° |
| 2026-04-23 15:44 | 53.35110 | 10.16162 | 16705 ft | 387 kts | 194° |
| 2026-04-23 15:44 | 53.32482 | 10.15106 | 17446 ft | 391 kts | 194° |
| 2026-04-23 15:45 | 53.29814 | 10.14029 | 18163 ft | 395 kts | 194° |
| 2026-04-23 15:45 | 53.27138 | 10.12924 | 18865 ft | 398 kts | 194° |
| 2026-04-23 15:45 | 53.24439 | 10.11796 | 19534 ft | 400 kts | 194° |
| 2026-04-23 15:45 | 53.21727 | 10.10657 | 20141 ft | 404 kts | 194° |
| 2026-04-23 15:46 | 53.18982 | 10.09497 | 20703 ft | 409 kts | 194° |
| 2026-04-23 15:46 | 53.16213 | 10.08320 | 21349 ft | 412 kts | 194° |
| 2026-04-23 15:46 | 53.13429 | 10.07128 | 21974 ft | 414 kts | 194° |
| 2026-04-23 15:46 | 53.10633 | 10.05924 | 22558 ft | 418 kts | 194° |
| 2026-04-23 15:47 | 53.07806 | 10.04700 | 23103 ft | 422 kts | 194° |
| 2026-04-23 15:47 | 53.04958 | 10.03463 | 23248 ft | 423 kts | 194° |
| 2026-04-23 15:47 | 53.02116 | 10.02229 | 23276 ft | 422 kts | 194° |
| 2026-04-23 15:47 | 52.99280 | 10.01000 | 23273 ft | 421 kts | 194° |
| 2026-04-23 15:48 | 52.96442 | 9.99770 | 23270 ft | 422 kts | 194° |
| 2026-04-23 15:48 | 52.93591 | 9.98530 | 23275 ft | 424 kts | 194° |
| 2026-04-23 15:48 | 52.90719 | 9.97490 | 23276 ft | 422 kts | 186° |
| 2026-04-23 15:48 | 52.87809 | 9.96980 | 23275 ft | 420 kts | 185° |
| 2026-04-23 15:49 | 52.84892 | 9.96488 | 23278 ft | 421 kts | 185° |
| 2026-04-23 15:49 | 52.81971 | 9.95988 | 23275 ft | 423 kts | 185° |
| 2026-04-23 15:49 | 52.79038 | 9.95478 | 23277 ft | 422 kts | 185° |
| 2026-04-23 15:49 | 52.76118 | 9.94970 | 23279 ft | 422 kts | 185° |
| 2026-04-23 15:50 | 52.73201 | 9.94464 | 23273 ft | 420 kts | 186° |
| 2026-04-23 15:50 | 52.70289 | 9.93959 | 23275 ft | 421 kts | 185° |
| 2026-04-23 15:50 | 52.67363 | 9.93454 | 23276 ft | 423 kts | 185° |
| 2026-04-23 15:50 | 52.64438 | 9.92953 | 23274 ft | 422 kts | 185° |
| 2026-04-23 15:51 | 52.61551 | 9.92459 | 23276 ft | 422 kts | 185° |
| 2026-04-23 15:51 | 52.58642 | 9.91964 | 23276 ft | 420 kts | 185° |
| 2026-04-23 15:51 | 52.55726 | 9.91470 | 23274 ft | 421 kts | 185° |
| 2026-04-23 15:51 | 52.52805 | 9.90976 | 23273 ft | 423 kts | 184° |
| 2026-04-23 15:52 | 52.49873 | 9.90484 | 23276 ft | 422 kts | 185° |
| 2026-04-23 15:52 | 52.46954 | 9.89990 | 23273 ft | 421 kts | 185° |
| 2026-04-23 15:52 | 52.44040 | 9.89492 | 23273 ft | 420 kts | 184° |
| 2026-04-23 15:52 | 52.41125 | 9.88995 | 23274 ft | 420 kts | 185° |
| 2026-04-23 15:53 | 52.38219 | 9.88502 | 23259 ft | 420 kts | 184° |
| 2026-04-23 15:53 | 52.35309 | 9.88012 | 23255 ft | 420 kts | 185° |
| 2026-04-23 15:53 | 52.32405 | 9.87522 | 23260 ft | 420 kts | 185° |
| 2026-04-23 15:53 | 52.29504 | 9.87033 | 23268 ft | 419 kts | 184° |
| 2026-04-23 15:54 | 52.26597 | 9.86545 | 23282 ft | 420 kts | 184° |
| 2026-04-23 15:54 | 52.23677 | 9.86054 | 23279 ft | 422 kts | 185° |
| 2026-04-23 15:54 | 52.20755 | 9.85564 | 23281 ft | 421 kts | 184° |
| 2026-04-23 15:54 | 52.17834 | 9.85073 | 23279 ft | 421 kts | 185° |
| 2026-04-23 15:55 | 52.14926 | 9.84587 | 23279 ft | 420 kts | 185° |
| 2026-04-23 15:55 | 52.12013 | 9.84101 | 23283 ft | 420 kts | 184° |
| 2026-04-23 15:55 | 52.09095 | 9.83612 | 23282 ft | 422 kts | 185° |
| 2026-04-23 15:55 | 52.06183 | 9.83125 | 23287 ft | 419 kts | 184° |
| 2026-04-23 15:56 | 52.03274 | 9.82646 | 23289 ft | 421 kts | 184° |
| 2026-04-23 15:56 | 52.00360 | 9.82169 | 23290 ft | 421 kts | 184° |
| 2026-04-23 15:56 | 51.97448 | 9.81689 | 23282 ft | 421 kts | 184° |
| 2026-04-23 15:56 | 51.94570 | 9.81212 | 23260 ft | 421 kts | 184° |
| 2026-04-23 15:57 | 51.91654 | 9.80725 | 23260 ft | 421 kts | 184° |
| 2026-04-23 15:57 | 51.88738 | 9.80238 | 23255 ft | 421 kts | 184° |
| 2026-04-23 15:57 | 51.85822 | 9.79757 | 23268 ft | 421 kts | 184° |
| 2026-04-23 15:57 | 51.82869 | 9.79271 | 23263 ft | 421 kts | 184° |
| 2026-04-23 15:58 | 51.79951 | 9.78791 | 23255 ft | 421 kts | 184° |
| 2026-04-23 15:58 | 51.77074 | 9.78320 | 23264 ft | 421 kts | 184° |
| 2026-04-23 15:58 | 51.74154 | 9.77841 | 23263 ft | 421 kts | 184° |
| 2026-04-23 15:58 | 51.71240 | 9.77361 | 23266 ft | 421 kts | 184° |
| 2026-04-23 15:59 | 51.68321 | 9.76879 | 23263 ft | 421 kts | 184° |
| 2026-04-23 15:59 | 51.65404 | 9.76399 | 23263 ft | 421 kts | 184° |
| 2026-04-23 15:59 | 51.62487 | 9.75922 | 23272 ft | 421 kts | 184° |
| 2026-04-23 15:59 | 51.59569 | 9.75448 | 23279 ft | 421 kts | 184° |
| 2026-04-23 16:00 | 51.56659 | 9.74978 | 23282 ft | 421 kts | 184° |
| 2026-04-23 16:00 | 51.53747 | 9.74509 | 23283 ft | 420 kts | 184° |
| 2026-04-23 16:00 | 51.50839 | 9.74040 | 23280 ft | 420 kts | 184° |
| 2026-04-23 16:00 | 51.47927 | 9.73566 | 23274 ft | 420 kts | 184° |
| 2026-04-23 16:01 | 51.45021 | 9.73091 | 23286 ft | 420 kts | 184° |
| 2026-04-23 16:01 | 51.42110 | 9.72614 | 23285 ft | 420 kts | 184° |
| 2026-04-23 16:01 | 51.39204 | 9.72140 | 23283 ft | 420 kts | 184° |
| 2026-04-23 16:01 | 51.36295 | 9.71669 | 23286 ft | 420 kts | 184° |
| 2026-04-23 16:02 | 51.33387 | 9.71196 | 23284 ft | 420 kts | 184° |
| 2026-04-23 16:02 | 51.30485 | 9.70723 | 23272 ft | 419 kts | 184° |
| 2026-04-23 16:02 | 51.27582 | 9.70253 | 23268 ft | 419 kts | 184° |
| 2026-04-23 16:02 | 51.24682 | 9.69785 | 23265 ft | 419 kts | 184° |
| 2026-04-23 16:03 | 51.21778 | 9.69318 | 23264 ft | 419 kts | 184° |
| 2026-04-23 16:03 | 51.18873 | 9.69139 | 23264 ft | 417 kts | 176° |
| 2026-04-23 16:03 | 51.16951 | 9.69202 | 23269 ft | 417 kts | 176° |
| 2026-04-23 16:03 | 51.14049 | 9.69297 | 23265 ft | 417 kts | 176° |
| 2026-04-23 16:04 | 51.11145 | 9.69393 | 23267 ft | 417 kts | 176° |
| 2026-04-23 16:04 | 51.08243 | 9.69489 | 23271 ft | 417 kts | 176° |
| 2026-04-23 16:04 | 51.05339 | 9.69579 | 23270 ft | 417 kts | 178° |
| 2026-04-23 16:04 | 51.02443 | 9.69094 | 23269 ft | 420 kts | 190° |
| 2026-04-23 16:05 | 50.99585 | 9.68117 | 23271 ft | 420 kts | 191° |
| 2026-04-23 16:05 | 50.96731 | 9.67134 | 23265 ft | 420 kts | 190° |
| 2026-04-23 16:05 | 50.93876 | 9.66149 | 23269 ft | 420 kts | 191° |
| 2026-04-23 16:05 | 50.91022 | 9.65164 | 23271 ft | 420 kts | 190° |
| 2026-04-23 16:06 | 50.88162 | 9.64179 | 23265 ft | 420 kts | 190° |
| 2026-04-23 16:06 | 50.85304 | 9.63197 | 23266 ft | 420 kts | 190° |
| 2026-04-23 16:06 | 50.82446 | 9.62219 | 23266 ft | 420 kts | 190° |
| 2026-04-23 16:06 | 50.79587 | 9.61239 | 23263 ft | 420 kts | 190° |
| 2026-04-23 16:07 | 50.76730 | 9.60257 | 23272 ft | 420 kts | 190° |
| 2026-04-23 16:07 | 50.73870 | 9.59273 | 23272 ft | 420 kts | 190° |
| 2026-04-23 16:07 | 50.71014 | 9.58293 | 23271 ft | 420 kts | 190° |
| 2026-04-23 16:07 | 50.68184 | 9.57329 | 23271 ft | 420 kts | 190° |
| 2026-04-23 16:08 | 50.65325 | 9.56358 | 23269 ft | 420 kts | 190° |
| 2026-04-23 16:08 | 50.62470 | 9.55387 | 23269 ft | 420 kts | 190° |
| 2026-04-23 16:08 | 50.59613 | 9.54418 | 23265 ft | 420 kts | 190° |
| 2026-04-23 16:08 | 50.56752 | 9.53452 | 23265 ft | 420 kts | 190° |
| 2026-04-23 16:09 | 50.53893 | 9.52486 | 23261 ft | 420 kts | 190° |
| 2026-04-23 16:09 | 50.51034 | 9.51521 | 23265 ft | 420 kts | 190° |
| 2026-04-23 16:09 | 50.48170 | 9.50557 | 23271 ft | 420 kts | 190° |
| 2026-04-23 16:09 | 50.45307 | 9.49593 | 23272 ft | 420 kts | 190° |
| 2026-04-23 16:10 | 50.42447 | 9.48631 | 23267 ft | 420 kts | 190° |
| 2026-04-23 16:10 | 50.39592 | 9.47672 | 23263 ft | 420 kts | 190° |
| 2026-04-23 16:10 | 50.36738 | 9.46713 | 23266 ft | 420 kts | 190° |
| 2026-04-23 16:10 | 50.33879 | 9.45751 | 23266 ft | 420 kts | 190° |
| 2026-04-23 16:11 | 50.31024 | 9.44792 | 23266 ft | 420 kts | 190° |
| 2026-04-23 16:11 | 50.28166 | 9.43838 | 23268 ft | 420 kts | 190° |
| 2026-04-23 16:11 | 50.25307 | 9.42885 | 23270 ft | 420 kts | 190° |
| 2026-04-23 16:11 | 50.22450 | 9.41933 | 23272 ft | 420 kts | 190° |
| 2026-04-23 16:12 | 50.19597 | 9.40982 | 23270 ft | 420 kts | 190° |
| 2026-04-23 16:12 | 50.16741 | 9.40031 | 23269 ft | 420 kts | 190° |
| 2026-04-23 16:12 | 50.13887 | 9.39081 | 23269 ft | 419 kts | 190° |
| 2026-04-23 16:12 | 50.11031 | 9.38136 | 23267 ft | 420 kts | 190° |
| 2026-04-23 16:13 | 50.08176 | 9.37193 | 23267 ft | 419 kts | 190° |
| 2026-04-23 16:13 | 50.02504 | 9.35311 | 23006 ft | 410 kts | 190° |
| 2026-04-23 16:13 | 49.99727 | 9.34389 | 22739 ft | 407 kts | 190° |
| 2026-04-23 16:14 | 49.96962 | 9.33473 | 22472 ft | 405 kts | 190° |
| 2026-04-23 16:14 | 49.94213 | 9.32566 | 22213 ft | 403 kts | 190° |
| 2026-04-23 16:14 | 49.91476 | 9.31665 | 21952 ft | 401 kts | 190° |
| 2026-04-23 16:14 | 49.88747 | 9.30770 | 21694 ft | 400 kts | 190° |
| 2026-04-23 16:15 | 49.86025 | 9.29880 | 21435 ft | 398 kts | 190° |
| 2026-04-23 16:15 | 49.83361 | 9.29008 | 20988 ft | 394 kts | 190° |
| 2026-04-23 16:15 | 49.80695 | 9.28134 | 20508 ft | 391 kts | 190° |
| 2026-04-23 16:15 | 49.78032 | 9.27261 | 20277 ft | 391 kts | 190° |
| 2026-04-23 16:16 | 49.75375 | 9.26388 | 20277 ft | 391 kts | 190° |
| 2026-04-23 16:16 | 49.72712 | 9.25515 | 20284 ft | 391 kts | 190° |
| 2026-04-23 16:16 | 49.70050 | 9.24642 | 20282 ft | 391 kts | 190° |
| 2026-04-23 16:16 | 49.67385 | 9.23769 | 20282 ft | 391 kts | 190° |
| 2026-04-23 16:17 | 49.64719 | 9.22902 | 20282 ft | 391 kts | 190° |
| 2026-04-23 16:17 | 49.62056 | 9.22040 | 20282 ft | 391 kts | 190° |
| 2026-04-23 16:17 | 49.59392 | 9.21176 | 20282 ft | 391 kts | 190° |
| 2026-04-23 16:17 | 49.56728 | 9.20316 | 20282 ft | 391 kts | 190° |
| 2026-04-23 16:18 | 49.54058 | 9.19457 | 20282 ft | 391 kts | 190° |
| 2026-04-23 16:18 | 49.51390 | 9.18599 | 20282 ft | 391 kts | 190° |
| 2026-04-23 16:18 | 49.48717 | 9.17736 | 20281 ft | 391 kts | 190° |
| 2026-04-23 16:18 | 49.46082 | 9.16881 | 19717 ft | 383 kts | 190° |
| 2026-04-23 16:19 | 49.43482 | 9.16034 | 18850 ft | 380 kts | 190° |
| 2026-04-23 16:19 | 49.40909 | 9.15197 | 17945 ft | 376 kts | 191° |
| 2026-04-23 16:19 | 49.38363 | 9.14372 | 17071 ft | 371 kts | 191° |
| 2026-04-23 16:19 | 49.35854 | 9.13562 | 16224 ft | 366 kts | 191° |
| 2026-04-23 16:20 | 49.33375 | 9.12768 | 15417 ft | 362 kts | 191° |
| 2026-04-23 16:20 | 49.30927 | 9.11988 | 14603 ft | 357 kts | 191° |
| 2026-04-23 16:20 | 49.28506 | 9.11217 | 13808 ft | 353 kts | 192° |
| 2026-04-23 16:20 | 49.26112 | 9.10453 | 12951 ft | 349 kts | 192° |
| 2026-04-23 16:21 | 49.23754 | 9.09697 | 12119 ft | 344 kts | 192° |
| 2026-04-23 16:21 | 49.21454 | 9.08959 | 11316 ft | 340 kts | 192° |
| 2026-04-23 16:21 | 49.19155 | 9.08223 | 10610 ft | 336 kts | 192° |
| 2026-04-23 16:21 | 49.16859 | 9.07491 | 10365 ft | 336 kts | 192° |
| 2026-04-23 16:22 | 49.14598 | 9.06773 | 10261 ft | 321 kts | 191° |
| 2026-04-23 16:22 | 49.12475 | 9.06097 | 10276 ft | 307 kts | 191° |
| 2026-04-23 16:22 | 49.10391 | 9.05433 | 10286 ft | 306 kts | 191° |
| 2026-04-23 16:22 | 49.08314 | 9.04772 | 10282 ft | 304 kts | 191° |
| 2026-04-23 16:23 | 49.06243 | 9.04111 | 10285 ft | 304 kts | 191° |
| 2026-04-23 16:23 | 49.04175 | 9.03450 | 10284 ft | 304 kts | 191° |
| 2026-04-23 16:23 | 49.02107 | 9.02795 | 10284 ft | 304 kts | 191° |
| 2026-04-23 16:23 | 49.00037 | 9.02143 | 10287 ft | 304 kts | 191° |
| 2026-04-23 16:24 | 48.97966 | 9.01485 | 10289 ft | 304 kts | 191° |
| 2026-04-23 16:24 | 48.95899 | 9.00825 | 10291 ft | 303 kts | 191° |
| 2026-04-23 16:24 | 48.93835 | 9.00169 | 10291 ft | 303 kts | 191° |
| 2026-04-23 16:24 | 48.91773 | 8.99515 | 10292 ft | 303 kts | 191° |
| 2026-04-23 16:25 | 48.89712 | 8.98863 | 10262 ft | 303 kts | 191° |
| 2026-04-23 16:25 | 48.87651 | 8.98211 | 10118 ft | 300 kts | 191° |
| 2026-04-23 16:25 | 48.85639 | 8.97575 | 9948 ft | 287 kts | 191° |
| 2026-04-23 16:25 | 48.83753 | 8.96981 | 9814 ft | 267 kts | 191° |
| 2026-04-23 16:26 | 48.81995 | 8.96430 | 9664 ft | 251 kts | 191° |
| 2026-04-23 16:26 | 48.80312 | 8.95902 | 9488 ft | 244 kts | 191° |
| 2026-04-23 16:26 | 48.78666 | 8.95384 | 9052 ft | 240 kts | 191° |
| 2026-04-23 16:26 | 48.77035 | 8.94872 | 8583 ft | 238 kts | 191° |
| 2026-04-23 16:27 | 48.75417 | 8.94368 | 8132 ft | 237 kts | 191° |
| 2026-04-23 16:27 | 48.73808 | 8.93870 | 7675 ft | 235 kts | 191° |
| 2026-04-23 16:27 | 48.72209 | 8.93371 | 7226 ft | 234 kts | 191° |
| 2026-04-23 16:27 | 48.70625 | 8.92874 | 6805 ft | 231 kts | 191° |
| 2026-04-23 16:28 | 48.69055 | 8.92438 | 6427 ft | 226 kts | 181° |
| 2026-04-23 16:28 | 48.67551 | 8.92702 | 6287 ft | 211 kts | 159° |
| 2026-04-23 16:28 | 48.66276 | 8.93682 | 6057 ft | 203 kts | 140° |
| 2026-04-23 16:28 | 48.65322 | 8.95209 | 5790 ft | 198 kts | 120° |
| 2026-04-23 16:29 | 48.64768 | 8.97078 | 5442 ft | 194 kts | 100° |
| 2026-04-23 16:29 | 48.64665 | 8.99050 | 5133 ft | 189 kts | 79° |
| 2026-04-23 16:29 | 48.64950 | 9.00984 | 4803 ft | 187 kts | 73° |
| 2026-04-23 16:29 | 48.65289 | 9.02814 | 4695 ft | 175 kts | 71° |
| 2026-04-23 16:30 | 48.65613 | 9.04517 | 4556 ft | 162 kts | 71° |
| 2026-04-23 16:30 | 48.65914 | 9.06093 | 4437 ft | 150 kts | 70° |
| 2026-04-23 16:30 | 48.66196 | 9.07564 | 4267 ft | 143 kts | 72° |
| 2026-04-23 16:30 | 48.66472 | 9.08981 | 3971 ft | 141 kts | 72° |
| 2026-04-23 16:31 | 48.66733 | 9.10468 | 3454 ft | 148 kts | 72° |
| 2026-04-23 16:31 | 48.67040 | 9.11976 | 2957 ft | 151 kts | 70° |
| 2026-04-23 16:31 | 48.67335 | 9.13530 | 2397 ft | 156 kts | 73° |
| 2026-04-23 16:31 | 48.67612 | 9.15080 | 2031 ft | 145 kts | 72° |
| 2026-04-23 16:32 | 48.67910 | 9.16495 | 1742 ft | 138 kts | 70° |
| 2026-04-23 16:32 | 48.68162 | 9.17868 | 1609 ft | 134 kts | 70° |
| 2026-04-23 16:32 | 48.68431 | 9.19240 | 1453 ft | 136 kts | 69° |
| 2026-04-23 16:32 | 48.68687 | 9.20606 | 1308 ft | 134 kts | 70° |
| 2026-04-23 16:33 | 48.68920 | 9.21837 | 1290 ft | 101 kts | 74° |
| 2026-04-23 16:33 | 48.69066 | 9.22607 | 1287 ft | 51 kts | 76° |
| 2026-04-23 16:33 | 48.69161 | 9.22934 | 1289 ft | 31 kts | 51° |
| 2026-04-23 16:33 | 48.69289 | 9.23123 | 1287 ft | 19 kts | 39° |
| 2026-04-23 16:34 | 48.69368 | 9.23141 | 1288 ft | 8 kts | 345° |
| 2026-04-23 16:34 | 48.69409 | 9.23076 | 1288 ft | 9 kts | 300° |
| 2026-04-23 16:34 | 48.69399 | 9.22989 | 1285 ft | 8 kts | 255° |
| 2026-04-23 16:34 | 48.69385 | 9.22914 | 1288 ft | 7 kts | 254° |
| 2026-04-23 16:35 | 48.69373 | 9.22848 | 1288 ft | 6 kts | 254° |
| 2026-04-23 16:35 | 48.69358 | 9.22776 | 1287 ft | 13 kts | 253° |
| 2026-04-23 16:35 | 48.69329 | 9.22632 | 1289 ft | 15 kts | 253° |
| 2026-04-23 16:35 | 48.69302 | 9.22482 | 1287 ft | 15 kts | 253° |
| 2026-04-23 16:36 | 48.69273 | 9.22331 | 1288 ft | 15 kts | 253° |
| 2026-04-23 16:36 | 48.69243 | 9.22175 | 1288 ft | 16 kts | 255° |
| 2026-04-23 16:36 | 48.69212 | 9.22010 | 1288 ft | 17 kts | 254° |
| 2026-04-23 16:36 | 48.69178 | 9.21829 | 1288 ft | 19 kts | 254° |
| 2026-04-23 16:37 | 48.69141 | 9.21633 | 1287 ft | 21 kts | 253° |
| 2026-04-23 16:37 | 48.69098 | 9.21410 | 1287 ft | 23 kts | 254° |
| 2026-04-23 16:37 | 48.69052 | 9.21166 | 1288 ft | 25 kts | 253° |
| 2026-04-23 16:37 | 48.69002 | 9.20903 | 1287 ft | 27 kts | 253° |
| 2026-04-23 16:38 | 48.68955 | 9.20663 | 1288 ft | 23 kts | 253° |
| 2026-04-23 16:38 | 48.68910 | 9.20420 | 1287 ft | 25 kts | 255° |
| 2026-04-23 16:38 | 48.68865 | 9.20179 | 1286 ft | 23 kts | 253° |
| 2026-04-23 16:38 | 48.68845 | 9.20071 | 1285 ft | 0 kts | 254° |
| 2026-04-23 16:39 | 48.68834 | 9.20024 | 1285 ft | 11 kts | 248° |
| 2026-04-23 16:39 | 48.68792 | 9.19932 | 1285 ft | 10 kts | 231° |
| 2026-04-23 16:40 | 48.68758 | 9.19843 | 1286 ft | 11 kts | 248° |
| 2026-04-23 16:40 | 48.68726 | 9.19684 | 1288 ft | 18 kts | 255° |
| 2026-04-23 16:40 | 48.68690 | 9.19496 | 1285 ft | 20 kts | 254° |
| 2026-04-23 16:40 | 48.68651 | 9.19289 | 1287 ft | 17 kts | 254° |
| 2026-04-23 16:41 | 48.68665 | 9.19177 | 1289 ft | 11 kts | 319° |
| 2026-04-23 16:41 | 48.68745 | 9.19156 | 1288 ft | 13 kts | 27° |
| 2026-04-23 16:41 | 48.68785 | 9.19282 | 1289 ft | 9 kts | 75° |
| 2026-04-23 16:41 | 48.68822 | 9.19306 | 1285 ft | 6 kts | 358° |
| 2026-04-23 16:42 | 48.68866 | 9.19291 | 1287 ft | 5 kts | 344° |
| 2026-04-23 16:42 | 48.68871 | 9.19288 | 1286 ft | 0 kts | 343° |